createdAt,value
2017-12-08T00:00:46.656Z,2
2017-12-08T00:01:48.416Z,2
2017-12-08T00:02:50.162Z,2.2
2017-12-08T00:03:51.958Z,2.2
2017-12-08T00:04:53.798Z,2
2017-12-08T00:05:55.710Z,2
2017-12-08T00:06:57.564Z,2
2017-12-08T00:08:00.235Z,1.9
2017-12-08T00:09:01.972Z,1.9
2017-12-08T00:10:04.037Z,1.9
2017-12-08T00:11:07.519Z,1.9
2017-12-08T00:12:09.362Z,2
2017-12-08T00:13:11.148Z,2
2017-12-08T00:14:12.884Z,2
2017-12-08T00:15:15.481Z,2.1
2017-12-08T00:16:17.368Z,2.1
2017-12-08T00:17:19.263Z,2.1
2017-12-08T00:18:21.062Z,2.1
2017-12-08T00:19:22.914Z,2.2
2017-12-08T00:20:24.928Z,2.2
2017-12-08T00:21:28.332Z,2.2
2017-12-08T00:22:30.064Z,2.3
2017-12-08T00:23:31.820Z,2.2
2017-12-08T00:24:33.508Z,2.2
2017-12-08T00:25:36.305Z,2.1
2017-12-08T00:26:37.956Z,2.1
2017-12-08T00:27:39.813Z,2.5
2017-12-08T00:28:41.611Z,2.3
2017-12-08T00:29:43.422Z,2.3
2017-12-08T00:47:33.323Z,1.9
2017-12-08T00:48:35.386Z,1.9
2017-12-08T00:49:37.130Z,1.7
2017-12-08T00:50:38.995Z,2.2
2017-12-08T00:51:40.781Z,2.1
2017-12-08T00:52:42.613Z,1.9
2017-12-08T00:53:44.328Z,2.2
2017-12-08T00:54:46.053Z,1.9
2017-12-08T00:55:47.915Z,1.9
2017-12-08T00:56:49.800Z,2.2
2017-12-08T00:57:53.190Z,1.9
2017-12-08T00:58:56.246Z,1.9
2017-12-08T00:59:58.158Z,1.9
2017-12-08T01:00:59.893Z,1.9
2017-12-08T01:02:01.690Z,1.9
2017-12-08T01:03:03.436Z,2.1
2017-12-08T01:04:05.978Z,2
2017-12-08T01:05:07.700Z,2
2017-12-08T01:06:09.470Z,2
2017-12-08T01:07:11.286Z,2
2017-12-08T01:08:14.835Z,2
2017-12-08T01:09:16.755Z,2.1
2017-12-08T01:10:18.437Z,2.1
2017-12-08T01:11:20.171Z,2
2017-12-08T01:20:22.913Z,1.8
2017-12-08T01:21:24.823Z,1.8
2017-12-08T01:22:26.609Z,1.8
2017-12-08T01:23:28.494Z,1.7
2017-12-08T01:24:30.313Z,1.7
2017-12-08T01:25:32.228Z,1.7
2017-12-08T01:26:34.086Z,1.7
2017-12-08T01:27:35.880Z,1.7
2017-12-08T01:28:37.628Z,1.6
2017-12-08T01:29:39.465Z,1.6
2017-12-08T01:30:43.090Z,1.8
2017-12-08T01:31:44.892Z,1.7
2017-12-08T01:32:46.725Z,1.3
2017-12-08T01:33:48.507Z,2
2017-12-08T01:34:50.384Z,1.7
2017-12-08T01:35:52.285Z,1.7
2017-12-08T01:36:54.058Z,1.7
2017-12-08T01:37:55.871Z,1.7
2017-12-08T01:38:57.698Z,2.1
2017-12-08T01:39:59.600Z,1.7
2017-12-08T01:41:03.168Z,1.7
2017-12-08T01:42:05.001Z,1.7
2017-12-08T01:43:06.777Z,1.7
2017-12-08T01:44:08.685Z,1.7
2017-12-08T01:45:10.593Z,1.6
2017-12-08T01:46:12.420Z,1.8
2017-12-08T01:47:14.295Z,1.7
2017-12-08T01:48:16.245Z,1.8
2017-12-08T01:49:18.887Z,1.8
2017-12-08T01:50:20.807Z,1.9
2017-12-08T01:51:24.602Z,1.9
2017-12-08T01:52:26.628Z,2
2017-12-08T01:53:29.079Z,2
2017-12-08T01:54:30.969Z,2.1
2017-12-08T01:55:32.852Z,2.1
2017-12-08T01:56:34.811Z,2.1
2017-12-08T01:57:36.713Z,2.1
2017-12-08T01:58:38.618Z,2.2
2017-12-08T01:59:40.521Z,2.2
2017-12-08T02:00:42.463Z,2.2
2017-12-08T02:01:46.463Z,2.2
2017-12-08T02:02:48.298Z,2.2
2017-12-08T02:03:50.237Z,2.1
2017-12-08T02:04:52.142Z,2.1
2017-12-08T02:05:54.061Z,2.1
2017-12-08T02:06:55.977Z,2.1
2017-12-08T02:07:57.929Z,2.1
2017-12-08T02:08:59.957Z,2.4
2017-12-08T02:10:01.978Z,2.1
2017-12-08T02:11:04.008Z,2.2
2017-12-08T02:12:08.022Z,2.1
2017-12-08T02:13:09.930Z,2.1
2017-12-08T02:14:11.840Z,2.6
2017-12-08T02:15:13.722Z,2.2
2017-12-08T02:16:15.631Z,2.2
2017-12-08T02:17:17.799Z,2.2
2017-12-08T02:18:19.711Z,2.2
2017-12-08T02:19:21.619Z,2.2
2017-12-08T02:20:23.559Z,2.3
2017-12-08T02:21:25.577Z,2.3
2017-12-08T02:22:29.706Z,2.4
2017-12-08T02:23:31.634Z,1.8
2017-12-08T02:24:33.615Z,2.3
2017-12-08T02:25:35.504Z,2.4
2017-12-08T02:26:37.388Z,2.4
2017-12-08T02:27:39.250Z,2.4
2017-12-08T02:28:41.193Z,2.5
2017-12-08T02:29:43.164Z,2
2017-12-08T02:30:45.140Z,2.5
2017-12-08T02:31:47.044Z,2.3
2017-12-08T02:32:50.758Z,2.5
2017-12-08T02:33:52.692Z,2.3
2017-12-08T02:34:54.715Z,2.5
2017-12-08T02:35:56.701Z,2.3
2017-12-08T02:36:58.641Z,2.3
2017-12-08T02:38:00.814Z,2.3
2017-12-08T02:39:02.799Z,2.3
2017-12-08T02:40:05.366Z,2.3
2017-12-08T02:41:07.261Z,2.3
2017-12-08T02:42:09.149Z,2.6
2017-12-08T02:43:12.966Z,2.3
2017-12-08T02:44:14.885Z,2.3
2017-12-08T02:45:16.877Z,2.2
2017-12-08T02:46:18.841Z,2.2
2017-12-08T02:47:20.775Z,2.5
2017-12-08T02:48:22.624Z,2.6
2017-12-08T02:49:24.558Z,2.3
2017-12-08T02:50:26.551Z,2.5
2017-12-08T02:51:28.524Z,2.2
2017-12-08T02:52:30.412Z,2.6
2017-12-08T02:53:34.009Z,2.2
2017-12-08T02:54:35.930Z,2.2
2017-12-08T02:55:37.783Z,2.2
2017-12-08T02:56:39.619Z,2.2
2017-12-08T02:57:41.624Z,2.2
2017-12-08T02:58:43.638Z,2.3
2017-12-08T02:59:45.548Z,2.5
2017-12-08T03:00:57.371Z,2.5
2017-12-08T03:01:59.328Z,2.7
2017-12-08T03:03:01.286Z,2.8
2017-12-08T03:04:05.307Z,3.2
2017-12-08T03:05:07.213Z,2.9
2017-12-08T03:06:09.180Z,2.9
2017-12-08T03:07:11.074Z,3
2017-12-08T03:08:12.996Z,3.1
2017-12-08T03:09:14.975Z,3.1
2017-12-08T03:10:16.853Z,2.6
2017-12-08T03:11:18.744Z,3
2017-12-08T03:12:20.627Z,3
2017-12-08T03:13:22.577Z,2.9
2017-12-08T03:14:26.304Z,3
2017-12-08T03:15:28.278Z,3
2017-12-08T03:16:30.284Z,3.1
2017-12-08T03:17:32.266Z,3.1
2017-12-08T03:18:34.744Z,3
2017-12-08T03:19:36.926Z,3
2017-12-08T03:20:38.942Z,3.1
2017-12-08T03:21:40.965Z,3.1
2017-12-08T03:22:42.860Z,3.2
2017-12-08T03:23:44.870Z,3.4
2017-12-08T03:24:48.597Z,3.2
2017-12-08T03:25:50.628Z,3.5
2017-12-08T03:26:52.567Z,3.2
2017-12-08T03:27:54.468Z,3.6
2017-12-08T03:28:56.345Z,3.2
2017-12-08T03:29:58.328Z,3.5
2017-12-08T03:31:00.970Z,3.3
2017-12-08T03:32:03.481Z,3.7
2017-12-08T03:33:05.484Z,3.3
2017-12-08T03:34:07.509Z,3.3
2017-12-08T03:35:11.541Z,3.3
2017-12-08T03:36:13.479Z,3.3
2017-12-08T03:37:15.380Z,3.3
2017-12-08T03:38:17.330Z,3.2
2017-12-08T03:39:19.278Z,3.2
2017-12-08T03:40:22.114Z,3.3
2017-12-08T03:41:24.153Z,3.1
2017-12-08T03:42:26.102Z,3.3
2017-12-08T03:43:28.054Z,3.1
2017-12-08T03:44:30.479Z,3.5
2017-12-08T03:45:34.141Z,3.5
2017-12-08T03:46:36.006Z,2.9
2017-12-08T03:47:38.016Z,3.1
2017-12-08T03:48:39.912Z,2.8
2017-12-08T03:49:41.865Z,2.8
2017-12-08T03:50:43.834Z,2.7
2017-12-08T03:51:45.733Z,3
2017-12-08T03:52:47.619Z,2.7
2017-12-08T03:53:49.446Z,2.7
2017-12-08T03:54:51.931Z,2.6
2017-12-08T03:55:55.622Z,2.6
2017-12-08T03:56:58.417Z,2.6
2017-12-08T03:58:00.391Z,2.6
2017-12-08T03:59:02.270Z,2.6
2017-12-08T04:00:04.103Z,2.5
2017-12-08T04:01:06.237Z,2.4
2017-12-08T04:02:08.017Z,2.5
2017-12-08T04:03:10.433Z,2.6
2017-12-08T04:04:12.927Z,2.6
2017-12-08T04:05:14.817Z,2.6
2017-12-08T04:06:18.535Z,2.5
2017-12-08T04:07:20.465Z,2.5
2017-12-08T04:08:22.743Z,2.5
2017-12-08T04:09:24.679Z,2.6
2017-12-08T04:10:26.682Z,2.6
2017-12-08T04:11:28.868Z,2.5
2017-12-08T04:12:30.777Z,2.6
2017-12-08T04:13:32.667Z,2.6
2017-12-08T04:14:34.664Z,2.6
2017-12-08T04:15:36.542Z,2.6
2017-12-08T04:16:41.160Z,2.9
2017-12-08T04:17:43.109Z,2.5
2017-12-08T04:18:45.077Z,2.5
2017-12-08T04:19:47.033Z,2.5
2017-12-08T04:20:49.661Z,2.5
2017-12-08T04:21:51.516Z,2.7
2017-12-08T04:22:53.467Z,2.5
2017-12-08T04:23:55.425Z,2.5
2017-12-08T04:24:57.369Z,2.5
2017-12-08T04:25:59.329Z,2.5
2017-12-08T04:27:03.637Z,2.6
2017-12-08T04:28:06.118Z,1.9
2017-12-08T04:29:08.124Z,2.7
2017-12-08T04:30:10.102Z,2.4
2017-12-08T04:31:12.071Z,2.8
2017-12-08T04:32:14.120Z,2.8
2017-12-08T04:33:15.999Z,2.5
2017-12-08T04:34:17.926Z,2.6
2017-12-08T04:35:19.866Z,2.4
2017-12-08T04:36:21.793Z,2.5
2017-12-08T04:37:25.555Z,2.9
2017-12-08T04:38:27.503Z,2.4
2017-12-08T04:39:29.420Z,2.4
2017-12-08T04:40:31.333Z,2.4
2017-12-08T04:41:33.257Z,2.4
2017-12-08T04:42:35.249Z,2.4
2017-12-08T04:43:37.131Z,2.5
2017-12-08T04:44:39.049Z,2.5
2017-12-08T04:45:40.969Z,2.5
2017-12-08T04:46:42.922Z,2.4
2017-12-08T04:47:46.610Z,2.5
2017-12-08T04:48:48.576Z,2.5
2017-12-08T04:49:50.532Z,2.7
2017-12-08T04:50:52.497Z,2.9
2017-12-08T04:51:54.430Z,2.5
2017-12-08T04:52:56.461Z,2.5
2017-12-08T04:53:58.316Z,2.4
2017-12-08T04:55:00.182Z,2.5
2017-12-08T04:56:02.165Z,2.5
2017-12-08T04:57:04.163Z,2.5
2017-12-08T04:58:07.926Z,2.6
2017-12-08T04:59:09.802Z,2.7
2017-12-08T05:00:11.758Z,2.4
2017-12-08T05:01:13.841Z,2.4
2017-12-08T05:02:15.799Z,2.5
2017-12-08T05:03:17.823Z,2.4
2017-12-08T05:04:20.396Z,2.4
2017-12-08T05:05:22.295Z,2.4
2017-12-08T05:06:24.230Z,2.7
2017-12-08T05:07:26.177Z,2.3
2017-12-08T05:08:29.905Z,2.3
2017-12-08T05:09:31.808Z,2.3
2017-12-08T05:10:33.760Z,2.4
2017-12-08T05:11:35.760Z,2.4
2017-12-08T05:12:37.704Z,2.4
2017-12-08T05:13:39.745Z,2.4
2017-12-08T05:14:41.675Z,2.4
2017-12-08T05:15:43.613Z,2.5
2017-12-08T05:16:45.564Z,2.8
2017-12-08T05:17:47.520Z,2.4
2017-12-08T05:18:51.265Z,2.5
2017-12-08T05:19:53.181Z,2.4
2017-12-08T05:20:55.147Z,2.4
2017-12-08T05:21:57.070Z,2.4
2017-12-08T05:22:58.969Z,2.4
2017-12-08T05:24:01.255Z,2.4
2017-12-08T05:25:03.134Z,2.4
2017-12-08T05:26:04.971Z,2.7
2017-12-08T05:27:06.874Z,2.4
2017-12-08T05:28:08.858Z,2.4
2017-12-08T05:29:12.467Z,2.7
2017-12-08T05:30:14.475Z,2.4
2017-12-08T05:31:16.470Z,2.4
2017-12-08T05:32:18.364Z,2.4
2017-12-08T05:33:20.292Z,2.9
2017-12-08T05:34:22.211Z,2.4
2017-12-08T05:35:24.142Z,2.4
2017-12-08T05:36:26.099Z,2.4
2017-12-08T05:37:28.110Z,2.4
2017-12-08T05:38:30.012Z,2.4
2017-12-08T05:39:33.695Z,2.8
2017-12-08T05:40:35.704Z,2.5
2017-12-08T05:41:37.659Z,2.5
2017-12-08T05:42:39.491Z,2.5
2017-12-08T05:43:41.417Z,2.5
2017-12-08T05:44:43.422Z,2.5
2017-12-08T05:45:45.947Z,2.5
2017-12-08T05:46:47.875Z,2.5
2017-12-08T05:47:49.892Z,2.5
2017-12-08T05:48:51.875Z,2.5
2017-12-08T05:49:55.521Z,2.5
2017-12-08T05:50:57.393Z,2.5
2017-12-08T05:52:00.323Z,2.5
2017-12-08T05:53:02.316Z,2.5
2017-12-08T05:54:04.243Z,2.5
2017-12-08T05:55:06.257Z,2.8
2017-12-08T05:56:08.240Z,2.5
2017-12-08T05:57:10.156Z,2.5
2017-12-08T05:58:12.079Z,3
2017-12-08T05:59:14.033Z,3
2017-12-08T06:00:18.376Z,2.6
2017-12-08T06:01:20.867Z,2.6
2017-12-08T06:02:22.829Z,2.6
2017-12-08T06:03:24.711Z,2.7
2017-12-08T06:04:26.548Z,2.7
2017-12-08T06:05:28.550Z,2.7
2017-12-08T06:06:30.502Z,2.7
2017-12-08T06:07:32.421Z,2.9
2017-12-08T06:08:35.024Z,2.9
2017-12-08T06:09:36.927Z,2.7
2017-12-08T06:10:40.651Z,2.7
2017-12-08T06:11:43.205Z,2.7
2017-12-08T06:12:45.092Z,2.7
2017-12-08T06:13:46.992Z,2.7
2017-12-08T06:14:48.843Z,2.7
2017-12-08T06:15:50.772Z,2.7
2017-12-08T06:16:52.633Z,2.6
2017-12-08T06:17:54.570Z,2.9
2017-12-08T06:18:56.510Z,2.6
2017-12-08T06:19:58.323Z,3.1
2017-12-08T06:21:02.036Z,2.6
2017-12-08T06:22:04.512Z,2.6
2017-12-08T06:23:06.445Z,2.6
2017-12-08T06:24:08.406Z,2.6
2017-12-08T06:25:10.333Z,2.6
2017-12-08T06:26:12.938Z,2.6
2017-12-08T06:27:14.805Z,2.6
2017-12-08T06:28:16.773Z,3
2017-12-08T06:29:18.762Z,2.6
2017-12-08T06:30:20.780Z,2.5
2017-12-08T06:31:25.060Z,2.6
2017-12-08T06:32:27.081Z,2.6
2017-12-08T06:33:28.965Z,2.5
2017-12-08T06:34:30.808Z,2.9
2017-12-08T06:35:33.451Z,2.6
2017-12-08T06:36:35.462Z,2.6
2017-12-08T06:37:37.349Z,2.5
2017-12-08T06:38:39.266Z,2.6
2017-12-08T06:39:41.185Z,2.6
2017-12-08T06:40:43.829Z,2.8
2017-12-08T06:41:47.697Z,2.6
2017-12-08T06:42:50.600Z,2.6
2017-12-08T06:43:52.506Z,2.7
2017-12-08T06:44:54.435Z,2.8
2017-12-08T06:45:56.459Z,3.1
2017-12-08T06:46:59.205Z,2.7
2017-12-08T06:48:01.264Z,2.7
2017-12-08T06:49:03.838Z,2.8
2017-12-08T06:50:05.775Z,2.8
2017-12-08T06:51:07.698Z,2.7
2017-12-08T06:52:11.418Z,3.1
2017-12-08T06:53:13.304Z,2.9
2017-12-08T06:54:15.195Z,2.9
2017-12-08T06:55:17.770Z,2.7
2017-12-08T06:56:19.754Z,2.7
2017-12-08T06:57:21.758Z,2.7
2017-12-08T06:58:23.661Z,2.8
2017-12-08T06:59:25.623Z,2.7
2017-12-08T07:00:27.598Z,3
2017-12-08T07:01:29.608Z,2.7
2017-12-08T07:02:33.477Z,2.6
2017-12-08T07:03:35.402Z,2.6
2017-12-08T07:04:37.420Z,2.6
2017-12-08T07:05:39.402Z,2.6
2017-12-08T07:06:41.387Z,2.6
2017-12-08T07:07:43.394Z,2.6
2017-12-08T07:08:45.403Z,2.6
2017-12-08T07:09:47.290Z,2.6
2017-12-08T07:10:49.941Z,2.7
2017-12-08T07:11:51.902Z,2.6
2017-12-08T07:12:55.739Z,2.5
2017-12-08T07:13:57.745Z,2.5
2017-12-08T07:14:59.715Z,2.5
2017-12-08T07:16:01.624Z,2.5
2017-12-08T07:17:03.553Z,2.5
2017-12-08T07:18:05.567Z,2.4
2017-12-08T07:19:07.560Z,2.5
2017-12-08T07:20:09.473Z,2.5
2017-12-08T07:21:11.336Z,2.4
2017-12-08T07:22:13.314Z,2.4
2017-12-08T07:23:17.118Z,2.2
2017-12-08T07:24:19.092Z,2.5
2017-12-08T07:25:21.013Z,2.9
2017-12-08T07:26:22.964Z,2.4
2017-12-08T07:27:24.835Z,2.6
2017-12-08T07:28:26.769Z,2.5
2017-12-08T07:29:28.655Z,2.7
2017-12-08T07:30:30.572Z,2.4
2017-12-08T07:31:32.561Z,2.4
2017-12-08T07:32:34.515Z,2.6
2017-12-08T07:33:38.210Z,2.5
2017-12-08T07:34:40.040Z,2.4
2017-12-08T07:35:42.045Z,2.4
2017-12-08T07:36:43.957Z,2.4
2017-12-08T07:37:46.497Z,2.4
2017-12-08T07:38:48.480Z,2.9
2017-12-08T07:39:50.474Z,2.4
2017-12-08T07:40:52.370Z,2.4
2017-12-08T07:41:54.306Z,2.5
2017-12-08T07:42:56.197Z,2.6
2017-12-08T07:44:00.042Z,2.6
2017-12-08T07:45:02.047Z,2.4
2017-12-08T07:46:03.930Z,2.4
2017-12-08T07:47:05.882Z,2.4
2017-12-08T07:48:07.783Z,2.6
2017-12-08T07:49:09.807Z,2.4
2017-12-08T07:50:11.761Z,2.5
2017-12-08T07:51:13.715Z,2.4
2017-12-08T07:52:15.689Z,2.6
2017-12-08T07:53:17.714Z,2.5
2017-12-08T07:54:22.150Z,2.5
2017-12-08T07:55:24.100Z,2
2017-12-08T07:56:26.093Z,2.8
2017-12-08T07:57:28.042Z,2.5
2017-12-08T07:58:29.865Z,2.5
2017-12-08T07:59:31.741Z,2.5
2017-12-08T08:00:33.589Z,2.5
2017-12-08T08:01:35.580Z,2.5
2017-12-08T08:02:37.492Z,2.6
2017-12-08T08:03:39.484Z,2.9
2017-12-08T08:04:43.827Z,2.6
2017-12-08T08:05:45.714Z,2.5
2017-12-08T08:06:47.637Z,2.6
2017-12-08T08:07:49.656Z,2.7
2017-12-08T08:08:51.605Z,3.1
2017-12-08T08:09:53.479Z,2.7
2017-12-08T08:10:55.346Z,2.7
2017-12-08T08:11:57.325Z,2.9
2017-12-08T08:12:59.170Z,3
2017-12-08T08:14:01.095Z,2.8
2017-12-08T08:15:04.833Z,3.2
2017-12-08T08:16:06.810Z,2.8
2017-12-08T08:17:08.762Z,2.8
2017-12-08T08:18:10.686Z,2.8
2017-12-08T08:19:12.694Z,2.8
2017-12-08T08:20:14.725Z,2.9
2017-12-08T08:21:16.688Z,2.8
2017-12-08T08:22:18.701Z,2.9
2017-12-08T08:23:20.594Z,2.9
2017-12-08T08:24:22.504Z,2.9
2017-12-08T08:25:26.167Z,2.9
2017-12-08T08:26:28.078Z,2.9
2017-12-08T08:27:30.043Z,2.9
2017-12-08T08:28:31.999Z,2.9
2017-12-08T08:29:35.570Z,3.3
2017-12-08T08:30:37.436Z,2.7
2017-12-08T08:31:39.416Z,3
2017-12-08T08:32:41.929Z,3
2017-12-08T08:33:43.943Z,3
2017-12-08T08:34:46.843Z,3.1
2017-12-08T08:35:50.613Z,3.1
2017-12-08T08:36:52.566Z,3.1
2017-12-08T08:37:54.554Z,3.1
2017-12-08T08:38:56.537Z,3.1
2017-12-08T08:39:58.541Z,3.1
2017-12-08T08:41:00.516Z,3.1
2017-12-08T08:42:02.535Z,3.1
2017-12-08T08:43:04.522Z,3.1
2017-12-08T08:44:06.414Z,3.1
2017-12-08T08:45:08.400Z,3.1
2017-12-08T08:46:12.172Z,3.1
2017-12-08T08:47:14.209Z,3
2017-12-08T08:48:16.197Z,3.1
2017-12-08T08:49:18.188Z,3.1
2017-12-08T08:50:20.207Z,3.1
2017-12-08T08:51:22.265Z,3
2017-12-08T08:52:24.770Z,3
2017-12-08T08:53:26.752Z,3
2017-12-08T08:54:28.663Z,3
2017-12-08T08:55:30.548Z,3.1
2017-12-08T08:56:34.239Z,3.1
2017-12-08T08:57:36.161Z,3.1
2017-12-08T08:58:38.087Z,3.2
2017-12-08T08:59:40.100Z,3.1
2017-12-08T09:00:42.052Z,3.5
2017-12-08T09:01:43.985Z,3.2
2017-12-08T09:02:46.985Z,3.4
2017-12-08T09:03:48.876Z,3.2
2017-12-08T09:04:50.729Z,3.1
2017-12-08T09:05:52.558Z,3.2
2017-12-08T09:06:56.940Z,3.2
2017-12-08T09:07:58.890Z,3.2
2017-12-08T09:09:00.907Z,3.2
2017-12-08T09:10:02.878Z,3.2
2017-12-08T09:11:05.494Z,3.2
2017-12-08T09:12:07.717Z,3.6
2017-12-08T09:13:09.745Z,3.2
2017-12-08T09:14:12.355Z,3.2
2017-12-08T09:15:16.411Z,3.3
2017-12-08T09:16:18.431Z,3.3
2017-12-08T09:17:22.281Z,3.3
2017-12-08T09:18:24.237Z,3.3
2017-12-08T09:19:26.724Z,3.4
2017-12-08T09:20:28.676Z,3.3
2017-12-08T09:21:32.273Z,3.4
2017-12-08T09:22:35.388Z,3.4
2017-12-08T09:23:37.957Z,3.4
2017-12-08T09:24:40.219Z,3.4
2017-12-08T09:25:42.755Z,3.5
2017-12-08T09:26:44.721Z,3.4
2017-12-08T09:27:49.105Z,3.4
2017-12-08T09:28:51.033Z,3.6
2017-12-08T09:29:53.272Z,3.6
2017-12-08T09:30:55.962Z,3.4
2017-12-08T09:31:58.605Z,3.4
2017-12-08T09:33:05.016Z,3.4
2017-12-08T09:34:09.425Z,3.5
2017-12-08T09:35:11.348Z,3.5
2017-12-08T09:36:13.075Z,3.5
2017-12-08T09:37:15.088Z,3.5
2017-12-08T09:38:18.884Z,3.4
2017-12-08T09:39:21.397Z,3.4
2017-12-08T09:40:23.417Z,3.4
2017-12-08T09:41:26.010Z,3.4
2017-12-08T09:42:28.909Z,3.4
2017-12-08T09:43:30.953Z,3.4
2017-12-08T09:44:33.548Z,3.4
2017-12-08T09:45:36.756Z,3.4
2017-12-08T09:46:39.273Z,3.4
2017-12-08T09:47:41.273Z,3.4
2017-12-08T09:48:45.041Z,3.4
2017-12-08T09:49:46.973Z,3.4
2017-12-08T09:50:51.557Z,3.4
2017-12-08T09:51:54.482Z,3.6
2017-12-08T09:52:56.533Z,3.7
2017-12-08T09:53:58.456Z,3.7
2017-12-08T09:55:00.448Z,3.3
2017-12-08T09:56:02.427Z,3.3
2017-12-08T09:57:04.890Z,3.3
2017-12-08T09:58:06.751Z,3.3
2017-12-08T09:59:10.451Z,2.9
2017-12-08T10:00:12.458Z,2.9
2017-12-08T10:01:14.781Z,3.2
2017-12-08T10:02:16.760Z,2.8
2017-12-08T10:03:18.705Z,2.7
2017-12-08T10:04:20.683Z,2.8
2017-12-08T10:05:22.632Z,2.9
2017-12-08T10:06:24.655Z,2.9
2017-12-08T10:07:26.611Z,3
2017-12-08T10:08:28.500Z,2.5
2017-12-08T10:09:32.969Z,2.9
2017-12-08T10:10:35.089Z,2.7
2017-12-08T10:11:37.098Z,2.7
2017-12-08T10:12:39.092Z,2.6
2017-12-08T10:13:41.062Z,3
2017-12-08T10:14:43.110Z,2.7
2017-12-08T10:15:44.997Z,2.7
2017-12-08T10:16:47.058Z,2.8
2017-12-08T10:17:50.647Z,2.9
2017-12-08T10:18:53.173Z,2.9
2017-12-08T10:19:56.805Z,2.9
2017-12-08T10:20:58.797Z,2.9
2017-12-08T10:22:00.779Z,2.9
2017-12-08T10:23:03.336Z,2.9
2017-12-08T10:24:05.257Z,3
2017-12-08T10:25:07.283Z,3.5
2017-12-08T10:26:09.256Z,3
2017-12-08T10:27:11.176Z,3
2017-12-08T10:28:13.122Z,3
2017-12-08T10:29:15.639Z,3.1
2017-12-08T10:30:19.462Z,3.4
2017-12-08T10:31:21.373Z,3
2017-12-08T10:32:23.344Z,3
2017-12-08T10:33:25.267Z,3
2017-12-08T10:34:27.234Z,3.3
2017-12-08T10:35:29.246Z,3.1
2017-12-08T10:36:31.259Z,3.1
2017-12-08T10:37:33.283Z,3.1
2017-12-08T10:38:35.205Z,3
2017-12-08T10:39:37.036Z,3
2017-12-08T10:40:40.405Z,2.6
2017-12-08T10:41:42.422Z,3
2017-12-08T10:42:44.417Z,3.1
2017-12-08T10:43:46.405Z,3.1
2017-12-08T10:44:48.341Z,3.1
2017-12-08T10:45:50.337Z,3.3
2017-12-08T10:46:52.299Z,3.1
2017-12-08T10:47:54.346Z,3
2017-12-08T10:48:56.301Z,3
2017-12-08T10:49:59.280Z,3.1
2017-12-08T10:51:03.277Z,2.9
2017-12-08T10:52:04.942Z,2.9
2017-12-08T10:53:06.915Z,2.9
2017-12-08T10:54:08.936Z,3.1
2017-12-08T10:55:10.904Z,3
2017-12-08T10:56:12.909Z,3
2017-12-08T10:57:15.541Z,3
2017-12-08T10:58:17.532Z,3
2017-12-08T10:59:19.527Z,3
2017-12-08T11:00:22.121Z,2.4
2017-12-08T11:01:25.915Z,3
2017-12-08T11:02:27.872Z,2.5
2017-12-08T11:03:29.892Z,3.1
2017-12-08T11:04:32.391Z,3.3
2017-12-08T11:05:34.377Z,3
2017-12-08T11:06:36.341Z,3.4
2017-12-08T11:07:38.380Z,3
2017-12-08T11:08:40.315Z,3
2017-12-08T11:09:42.353Z,3.3
2017-12-08T11:10:44.199Z,3
2017-12-08T11:11:47.916Z,2.9
2017-12-08T11:12:49.911Z,2.8
2017-12-08T11:13:53.545Z,2.8
2017-12-08T11:14:56.190Z,2.8
2017-12-08T11:15:58.162Z,2.8
2017-12-08T11:17:00.162Z,3.1
2017-12-08T11:18:02.111Z,2.9
2017-12-08T11:19:04.104Z,3.2
2017-12-08T11:20:06.108Z,2.6
2017-12-08T11:21:08.044Z,2.7
2017-12-08T11:22:12.482Z,2.7
2017-12-08T11:23:14.509Z,2.7
2017-12-08T11:24:16.434Z,2.6
2017-12-08T11:25:18.447Z,2.6
2017-12-08T11:26:20.381Z,2.6
2017-12-08T11:27:22.264Z,2.7
2017-12-08T11:28:24.152Z,2.5
2017-12-08T11:29:26.121Z,2.8
2017-12-08T11:30:28.103Z,2.5
2017-12-08T11:31:30.094Z,2.5
2017-12-08T11:32:33.865Z,2.4
2017-12-08T11:33:35.847Z,2.3
2017-12-08T11:34:37.763Z,2.3
2017-12-08T11:35:39.681Z,2.1
2017-12-08T11:36:41.704Z,2.1
2017-12-08T11:37:43.620Z,2.2
2017-12-08T11:38:45.592Z,2.3
2017-12-08T11:39:47.505Z,2.3
2017-12-08T11:40:49.478Z,2.5
2017-12-08T11:53:32.283Z,15.3
2017-12-08T11:53:45.695Z,15.2
2017-12-08T11:54:52.916Z,15.3
2017-12-08T13:31:54.658Z,14.2
2017-12-08T13:33:01.543Z,14.2
2017-12-08T13:34:04.937Z,14.9
2017-12-08T13:35:08.570Z,15.3
2017-12-08T13:36:11.790Z,15.8
2017-12-08T13:38:22.389Z,17
2017-12-08T13:39:29.244Z,17
2017-12-08T13:40:32.762Z,17.3
2017-12-08T13:41:16.566Z,17.5
2017-12-08T13:42:23.616Z,17.6
2017-12-08T13:43:27.203Z,17.8
2017-12-08T13:44:22.802Z,17.9
2017-12-08T13:45:29.596Z,18
2017-12-08T13:46:32.860Z,18.1
2017-12-08T13:47:09.102Z,18.2
2017-12-08T13:48:15.825Z,18.2
2017-12-08T13:49:19.104Z,18.3
2017-12-08T13:50:05.446Z,18.3
2017-12-08T13:51:12.242Z,18.3
2017-12-08T13:52:15.639Z,18.3
2017-12-08T13:55:57.999Z,18.4
2017-12-08T13:57:04.925Z,18.4
2017-12-08T14:07:42.205Z,15
2017-12-08T14:08:48.850Z,15.1
2017-12-08T14:09:52.233Z,15.8
2017-12-08T14:10:55.507Z,16.3
2017-12-08T14:11:58.811Z,16.8
2017-12-08T14:13:02.108Z,17.1
2017-12-08T14:14:05.417Z,17.4
2017-12-08T14:15:08.790Z,17.6
2017-12-08T14:16:12.119Z,17.8
2017-12-08T14:17:15.556Z,18
2017-12-08T14:18:20.893Z,18.2
2017-12-08T14:19:27.787Z,18.4
2017-12-08T14:20:31.135Z,18.5
2017-12-08T14:21:34.297Z,18.6
2017-12-08T14:22:38.251Z,18.7
2017-12-08T14:23:41.533Z,18.7
2017-12-08T14:24:44.727Z,18.8
2017-12-08T14:31:17.216Z,7.3
2017-12-08T14:32:20.887Z,6.3
2017-12-08T14:33:25.386Z,5.4
2017-12-08T14:34:32.134Z,4.6
2017-12-08T14:35:35.653Z,4.2
2017-12-08T14:36:42.079Z,3.9
2017-12-08T14:37:51.395Z,3.7
2017-12-08T14:38:59.650Z,3.6
2017-12-08T14:40:26.005Z,3.5
2017-12-08T14:41:36.793Z,3.3
2017-12-08T14:42:47.297Z,3.2
2017-12-08T14:43:54.985Z,3.1
2017-12-08T14:46:24.285Z,3.4
2017-12-08T14:47:27.937Z,3.5
2017-12-08T14:48:32.101Z,3.3
2017-12-08T14:49:36.745Z,3.3
2017-12-08T14:50:40.390Z,3.2
2017-12-08T14:51:44.573Z,3.1
2017-12-08T14:52:48.637Z,3
2017-12-08T14:53:52.015Z,2.9
2017-12-08T14:54:56.847Z,2.9
2017-12-08T14:56:00.249Z,2.8
2017-12-08T14:57:07.423Z,2.8
2017-12-08T14:58:13.820Z,2.7
2017-12-08T14:59:17.937Z,2.6
2017-12-08T15:00:23.205Z,2.6
2017-12-08T15:01:31.132Z,2.6
2017-12-08T15:02:37.409Z,2.6
2017-12-08T15:03:41.513Z,2.5
2017-12-08T15:04:49.547Z,2.5
2017-12-08T15:05:53.585Z,2.4
2017-12-08T15:07:04.299Z,2.4
2017-12-08T15:08:13.925Z,2.4
2017-12-08T15:09:20.974Z,2.3
2017-12-08T15:10:30.586Z,2.4
2017-12-08T15:11:35.983Z,2.3
2017-12-08T15:12:42.684Z,2.4
2017-12-08T15:13:48.495Z,2.4
2017-12-08T15:14:57.604Z,2.3
2017-12-08T15:16:04.008Z,2.3
2017-12-08T15:17:10.626Z,2.3
2017-12-08T15:18:17.606Z,2.2
2017-12-08T15:19:28.929Z,2.3
2017-12-08T15:20:36.131Z,2.2
2017-12-08T15:21:44.743Z,2.2
2017-12-08T15:22:54.346Z,2.1
2017-12-08T15:23:58.629Z,2.1
2017-12-08T15:25:04.138Z,2.1
2017-12-08T15:26:07.556Z,2.1
2017-12-08T15:27:11.660Z,2.1
2017-12-08T15:28:15.936Z,2.1
2017-12-08T15:29:23.398Z,2.1
2017-12-08T15:30:35.064Z,2.2
2017-12-08T15:31:42.668Z,2.1
2017-12-08T15:32:46.188Z,2
2017-12-08T15:33:50.578Z,2
2017-12-08T15:34:54.046Z,2
2017-12-08T15:35:58.826Z,2
2017-12-08T15:37:06.973Z,2
2017-12-08T15:38:12.036Z,2
2017-12-08T15:39:18.817Z,2
2017-12-08T15:40:26.875Z,2
2017-12-08T15:41:43.351Z,2
2017-12-08T15:42:47.285Z,1.9
2017-12-08T15:43:55.138Z,2
2017-12-08T15:45:03.807Z,2
2017-12-08T15:46:15.387Z,2
2017-12-08T15:47:19.772Z,2.1
2017-12-08T15:48:24.546Z,2.1
2017-12-08T15:49:28.608Z,2.2
2017-12-08T15:50:34.721Z,2.1
2017-12-08T15:51:40.294Z,2.1
2017-12-08T15:52:53.399Z,2.1
2017-12-08T15:54:03.221Z,2.1
2017-12-08T15:55:09.722Z,2.1
2017-12-08T15:56:13.194Z,2
2017-12-08T15:57:18.851Z,2
2017-12-08T15:58:24.205Z,2
2017-12-08T15:59:28.388Z,2.1
2017-12-08T16:00:32.758Z,2
2017-12-08T16:03:11.782Z,2
2017-12-08T16:04:15.256Z,2
2017-12-08T16:05:23.977Z,1.9
2017-12-08T16:06:27.349Z,1.9
2017-12-08T16:07:30.917Z,1.9
2017-12-08T16:08:34.465Z,1.9
2017-12-08T16:09:37.894Z,2
2017-12-08T16:10:41.439Z,1.8
2017-12-08T16:11:45.800Z,1.7
2017-12-08T16:12:49.346Z,1.7
2017-12-08T16:13:52.703Z,1.6
2017-12-08T16:14:56.101Z,1.6
2017-12-08T16:16:03.130Z,1.6
2017-12-08T16:17:06.604Z,1.4
2017-12-08T16:18:10.210Z,1.5
2017-12-08T16:19:14.055Z,1.4
2017-12-08T16:20:17.600Z,1.3
2017-12-08T16:21:20.951Z,1.3
2017-12-08T16:22:24.405Z,1.4
2017-12-08T16:23:27.995Z,1.4
2017-12-08T16:24:31.324Z,1.4
2017-12-08T16:25:36.201Z,1.4
2017-12-08T16:26:43.943Z,1.3
2017-12-08T16:27:48.786Z,1.2
2017-12-08T16:28:54.462Z,1.3
2017-12-08T16:29:57.893Z,1.2
2017-12-08T16:31:04.428Z,1.2
2017-12-08T16:32:11.027Z,1.2
2017-12-08T16:33:15.276Z,1.2
2017-12-08T16:34:18.577Z,1.1
2017-12-08T16:35:21.954Z,1.1
2017-12-08T16:36:26.049Z,1.1
2017-12-08T16:37:33.649Z,1.1
2017-12-08T16:38:37.016Z,1.1
2017-12-08T16:39:40.426Z,1.1
2017-12-08T16:40:43.907Z,1.1
2017-12-08T16:41:49.931Z,1.1
2017-12-08T16:42:54.055Z,1
2017-12-08T16:43:59.688Z,1
2017-12-08T16:45:05.050Z,0.9
2017-12-08T16:46:09.772Z,0.9
2017-12-08T16:47:17.172Z,0.8
2017-12-08T16:48:25.867Z,0.8
2017-12-08T16:49:29.173Z,0.7
2017-12-08T16:50:33.702Z,0.7
2017-12-08T16:51:37.053Z,0.8
2017-12-08T16:52:42.620Z,0.8
2017-12-08T16:53:46.034Z,0.8
2017-12-08T16:54:49.526Z,0.8
2017-12-08T16:55:54.443Z,0.9
2017-12-08T16:56:58.748Z,0.8
2017-12-08T16:58:03.940Z,0.7
2017-12-08T16:59:11.308Z,0.7
2017-12-08T17:00:14.683Z,0.8
2017-12-08T17:01:17.992Z,0.7
2017-12-08T17:02:23.358Z,0.7
2017-12-08T17:03:28.593Z,0.8